Storm Events Database

Event Details

Event Thunderstorm Wind
Magnitude 50 kts.
State KENTUCKY
County/Area BOURBON
WFO LMK
Report Source Law Enforcement
NCDC Data Source CSV
Begin Date 2007-04-03 18:55:00.0 EST-5
Begin Location 1SW PARIS
Begin Lat/Lon 38.21/-84.26
End Date 2007-04-03 18:55:00.0 EST-5
Deaths Direct/Indirect 0/0 (fatality details below, when available...)
Injuries Direct/Indirect 0/0
Property Damage 0.00K
Crop Damage 0.00K
Episode Narrative A strong, late season cold front brought an end to an extended period of warm weather. It also brought severe storms to central Kentucky, including two confirmed tornadoes.
Event Narrative Trees and power lines were downed county wide.


     ‚Äč



All events for this episode:

Location County/Zone St. Date Time T.Z. Type Mag Dth Inj PrD CrD
Totals: 0 0 895.00K 0.00K
EVELEIGH GRAYSON CO. KY 04/03/2007 16:17 CST-6 Hail 1.00 in. 0 0 0.00K 0.00K
BATTLETOWN MEADE CO. KY 04/03/2007 16:43 EST-5 Hail 1.00 in. 0 0 0.00K 0.00K
PRICEVILLE HART CO. KY 04/03/2007 16:45 CST-6 Hail 4.25 in. 0 0 0.00K 0.00K
PRICEVILLE HART CO. KY 04/03/2007 16:50 CST-6 Hail 1.75 in. 0 0 0.00K 0.00K
BRANDENBURG MEADE CO. KY 04/03/2007 17:00 EST-5 Hail 1.00 in. 0 0 0.00K 0.00K
BRANDENBURG MEADE CO. KY 04/03/2007 17:03 EST-5 Hail 1.75 in. 0 0 0.00K 0.00K
LA GRANGE OLDHAM CO. KY 04/03/2007 17:05 EST-5 Thunderstorm Wind 50 kts. EG 0 0 0.00K 0.00K
AUDUBON PARK JEFFERSON CO. KY 04/03/2007 17:12 EST-5 Thunderstorm Wind 50 kts. EG 0 0 50.00K 0.00K
BEDFORD TRIMBLE CO. KY 04/03/2007 17:15 EST-5 Thunderstorm Wind 50 kts. EG 0 0 0.00K 0.00K
LA GRANGE OLDHAM CO. KY 04/03/2007 17:15 EST-5 Hail 0.88 in. 0 0 0.00K 0.00K
ALLENDALE GREEN CO. KY 04/03/2007 17:30 CST-6 Thunderstorm Wind 50 kts. EG 0 0 0.00K 0.00K
ELIZABETH TOWN HARDIN CO. KY 04/03/2007 17:30 EST-5 Thunderstorm Wind 50 kts. EG 0 0 0.00K 0.00K
SHEPHERDSVILLE BULLITT CO. KY 04/03/2007 17:30 EST-5 Thunderstorm Wind 50 kts. EG 0 0 5.00K 0.00K
WEST PT HARDIN CO. KY 04/03/2007 17:30 EST-5 Hail 1.75 in. 0 0 0.00K 0.00K
CRENSHAW SPENCER CO. KY 04/03/2007 17:34 EST-5 Thunderstorm Wind 52 kts. EG 0 0 0.00K 0.00K
SHELBYVILLE SHELBY CO. KY 04/03/2007 17:35 EST-5 Thunderstorm Wind 50 kts. EG 0 0 0.00K 0.00K
MT WASHINGTON BULLITT CO. KY 04/03/2007 17:36 EST-5 Thunderstorm Wind 52 kts. EG 0 0 0.00K 0.00K
HAMMONVILLE HART CO. KY 04/03/2007 17:38 CST-6 Thunderstorm Wind 65 kts. EG 0 0 10.00K 0.00K
TAYLORSVILLE SPENCER CO. KY 04/03/2007 17:44 EST-5 Thunderstorm Wind 50 kts. EG 0 0 0.00K 0.00K
BARDSTOWN NELSON CO. KY 04/03/2007 17:50 EST-5 Thunderstorm Wind 52 kts. EG 0 0 0.00K 0.00K
FRANKFORT FRANKLIN CO. KY 04/03/2007 17:58 EST-5 Thunderstorm Wind 59 kts. MG 0 0 0.00K 0.00K
FRANKFORT FRANKLIN CO. KY 04/03/2007 18:00 EST-5 Thunderstorm Wind 70 kts. EG 0 0 50.00K 0.00K
MAGNOLIA LARUE CO. KY 04/03/2007 18:06 EST-5 Hail 0.75 in. 0 0 0.00K 0.00K
LAWRENCEBURG ANDERSON CO. KY 04/03/2007 18:10 EST-5 Thunderstorm Wind 60 kts. EG 0 0 50.00K 0.00K
BOWLING GREEN WARREN CO. KY 04/03/2007 18:15 CST-6 Hail 0.88 in. 0 0 0.00K 0.00K
GEORGETOWN SCOTT CO. KY 04/03/2007 18:15 EST-5 Thunderstorm Wind 60 kts. EG 0 0 50.00K 0.00K
MAGNOLIA LARUE CO. KY 04/03/2007 18:19 EST-5 Hail 2.50 in. 0 0 0.00K 0.00K
GLASGOW BARREN CO. KY 04/03/2007 18:20 CST-6 Thunderstorm Wind 50 kts. EG 0 0 0.00K 0.00K
RUSSELLVILLE LOGAN CO. KY 04/03/2007 18:25 CST-6 Thunderstorm Wind 50 kts. EG 0 0 0.00K 0.00K
STRINGTOWN MERCER CO. KY 04/03/2007 18:25 EST-5 Thunderstorm Wind 52 kts. EG 0 0 0.00K 0.00K
LEXINGTON FAYETTE CO. KY 04/03/2007 18:33 EST-5 Thunderstorm Wind 50 kts. EG 0 0 0.00K 0.00K
COLUMBIA ADAIR CO. KY 04/03/2007 18:35 CST-6 Thunderstorm Wind 60 kts. EG 0 0 10.00K 0.00K
MAGNOLIA LARUE CO. KY 04/03/2007 18:35 EST-5 Thunderstorm Wind 58 kts. MG 0 0 0.00K 0.00K
BUFFALO LARUE CO. KY 04/03/2007 18:37 EST-5 Thunderstorm Wind 52 kts. MG 0 0 0.00K 0.00K
FRANKLIN SIMPSON CO. KY 04/03/2007 18:40 CST-6 Thunderstorm Wind 50 kts. EG 0 0 0.00K 0.00K
SCOTTSVILLE ALLEN CO. KY 04/03/2007 18:40 CST-6 Thunderstorm Wind 50 kts. EG 0 0 0.00K 0.00K
SALOMA TAYLOR CO. KY 04/03/2007 18:43 EST-5 Hail 1.75 in. 0 0 0.00K 0.00K
CAMPBELLSVILLE TAYLOR CO. KY 04/03/2007 18:45 EST-5 Thunderstorm Wind 65 kts. EG 0 0 300.00K 0.00K
MT HERMAN MONROE CO. KY 04/03/2007 18:45 CST-6 Thunderstorm Wind 65 kts. EG 0 0 120.00K 0.00K
WILMORE JESSAMINE CO. KY 04/03/2007 18:46 EST-5 Thunderstorm Wind 50 kts. EG 0 0 0.00K 0.00K
JAMESTOWN RUSSELL CO. KY 04/03/2007 18:53 CST-6 Thunderstorm Wind 65 kts. EG 0 0 250.00K 0.00K
WINCHESTER CLARK CO. KY 04/03/2007 18:53 EST-5 Thunderstorm Wind 50 kts. EG 0 0 0.00K 0.00K
BURKESVILLE CUMBERLAND CO. KY 04/03/2007 18:55 CST-6 Thunderstorm Wind 50 kts. EG 0 0 0.00K 0.00K
EDMONTON METCALFE CO. KY 04/03/2007 18:55 CST-6 Thunderstorm Wind 50 kts. EG 0 0 0.00K 0.00K
PARIS BOURBON CO. KY 04/03/2007 18:55 EST-5 Thunderstorm Wind 50 kts. EG 0 0 0.00K 0.00K
JESSIETOWN MARION CO. KY 04/03/2007 18:58 EST-5 Hail 1.75 in. 0 0 0.00K 0.00K
SALOMA TAYLOR CO. KY 04/03/2007 18:58 EST-5 Thunderstorm Wind 50 kts. EG 0 0 0.00K 0.00K
SALOMA TAYLOR CO. KY 04/03/2007 18:58 EST-5 Hail 1.75 in. 0 0 0.00K 0.00K
WHITLOCK MADISON CO. KY 04/03/2007 19:04 EST-5 Thunderstorm Wind 50 kts. EG 0 0 0.00K 0.00K
ALBANY CLINTON CO. KY 04/03/2007 19:05 CST-6 Thunderstorm Wind 50 kts. EG 0 0 0.00K 0.00K
BOWLING GREEN WARREN CO. KY 04/03/2007 19:15 CST-6 Hail 0.88 in. 0 0 0.00K 0.00K
LANCASTER GARRARD CO. KY 04/03/2007 19:15 EST-5 Thunderstorm Wind 50 kts. EG 0 0 0.00K 0.00K
WINCHESTER CLARK CO. KY 04/03/2007 19:19 EST-5 Thunderstorm Wind 52 kts. EG 0 0 0.00K 0.00K
CLEMENTSVILLE CASEY CO. KY 04/03/2007 19:23 EST-5 Hail 1.00 in. 0 0 0.00K 0.00K
JAMESTOWN RUSSELL CO. KY 04/03/2007 21:10 CST-6 Thunderstorm Wind 50 kts. EG 0 0 0.00K 0.00K
Totals: 0 0 895.00K 0.00K